createdAt,value
2023-03-13T00:00:19.902Z,1.35
2023-03-13T00:05:21.558Z,2.10
2023-03-13T00:10:23.184Z,1.42
2023-03-13T00:15:24.710Z,1.40
2023-03-13T00:20:26.654Z,1.50
2023-03-13T00:25:30.432Z,1.40
2023-03-13T00:30:32.048Z,1.42
2023-03-13T00:35:33.731Z,1.60
2023-03-13T00:40:35.277Z,1.10
2023-03-13T00:45:36.780Z,1.00
2023-03-13T00:50:39.280Z,1.50
2023-03-13T00:55:51.566Z,1.17
2023-03-13T01:00:54.057Z,1.40
2023-03-13T01:06:00.659Z,1.15
2023-03-13T01:11:06.579Z,1.30
2023-03-13T01:16:14.764Z,0.80
2023-03-13T01:21:19.174Z,1.23
2023-03-13T01:26:21.799Z,1.77
2023-03-13T01:31:26.920Z,0.95
2023-03-13T01:36:29.661Z,0.90
2023-03-13T01:41:31.747Z,0.80
2023-03-13T01:46:33.510Z,0.88
2023-03-13T01:51:47.470Z,1.02
2023-03-13T01:57:00.714Z,1.02
2023-03-13T02:02:04.605Z,0.82
2023-03-13T02:07:12.547Z,0.70
2023-03-13T02:12:40.144Z,1.20
2023-03-13T02:17:43.043Z,0.80
2023-03-13T02:22:53.728Z,0.93
2023-03-13T02:28:00.173Z,0.93
2023-03-13T02:33:03.524Z,0.40
2023-03-13T02:38:10.272Z,0.88
2023-03-13T02:43:21.221Z,0.80
2023-03-13T02:48:31.639Z,0.63
2023-03-13T02:58:49.322Z,0.75
2023-03-13T03:03:52.347Z,0.77
2023-03-13T03:08:53.941Z,0.50
2023-03-13T03:13:56.617Z,0.55
2023-03-13T03:18:59.286Z,0.60
2023-03-13T03:24:01.401Z,1.50
2023-03-13T03:29:03.489Z,0.52
2023-03-13T03:34:07.895Z,0.80
2023-03-13T03:39:09.861Z,0.75
2023-03-13T03:44:11.466Z,0.68
2023-03-13T03:49:25.537Z,0.60
2023-03-13T03:54:27.464Z,0.80
2023-03-13T03:59:29.767Z,0.60
2023-03-13T04:04:33.421Z,0.65
2023-03-13T04:09:46.878Z,0.55
2023-03-13T04:14:56.441Z,0.80
2023-03-13T04:19:58.109Z,0.68
2023-03-13T04:25:00.930Z,0.65
2023-03-13T04:30:05.657Z,0.70
2023-03-13T04:35:21.223Z,0.60
2023-03-13T04:41:01.038Z,0.70
2023-03-13T04:46:15.557Z,0.70
2023-03-13T04:51:35.729Z,0.70
2023-03-13T04:57:00.258Z,0.90
2023-03-13T05:02:14.160Z,1.00
2023-03-13T05:07:41.858Z,0.60
2023-03-13T05:13:02.676Z,0.60
2023-03-13T05:18:24.786Z,0.57
2023-03-13T05:23:56.100Z,0.80
2023-03-13T05:29:00.498Z,0.30
2023-03-13T05:34:13.109Z,0.30
2023-03-13T05:39:42.722Z,0.40
2023-03-13T05:44:54.743Z,0.40
2023-03-13T05:50:28.429Z,0.55
2023-03-13T05:55:55.968Z,0.93
2023-03-13T06:01:24.229Z,0.30
2023-03-13T06:06:35.477Z,0.50
2023-03-13T06:11:40.317Z,0.98
2023-03-13T06:16:42.092Z,0.50
2023-03-13T06:21:50.360Z,0.32
2023-03-13T06:26:52.145Z,0.40
2023-03-13T06:31:53.813Z,0.40
2023-03-13T06:36:56.465Z,0.30
2023-03-13T06:41:58.515Z,0.30
2023-03-13T06:47:00.061Z,0.30
2023-03-13T06:52:01.761Z,0.45
2023-03-13T06:57:03.441Z,0.20
2023-03-13T07:02:05.127Z,0.30
2023-03-13T07:07:06.838Z,0.28
2023-03-13T07:12:08.731Z,0.30
2023-03-13T07:17:10.354Z,0.15
2023-03-13T07:22:11.888Z,0.20
2023-03-13T07:27:32.987Z,0.50
2023-03-13T07:32:34.669Z,0.50
2023-03-13T07:37:36.226Z,0.50
2023-03-13T07:42:40.550Z,0.40
2023-03-13T07:47:45.072Z,0.40
2023-03-13T07:52:46.665Z,0.30
2023-03-13T07:57:48.199Z,0.40
2023-03-13T08:02:49.722Z,0.50
2023-03-13T08:07:51.279Z,0.20
2023-03-13T08:12:53.032Z,0.40
2023-03-13T08:17:57.810Z,0.40
2023-03-13T08:22:59.342Z,0.77
2023-03-13T08:28:03.151Z,0.40
2023-03-13T08:33:07.432Z,0.50
2023-03-13T08:38:15.100Z,0.40
2023-03-13T08:43:16.605Z,0.60
2023-03-13T08:48:18.262Z,0.50
2023-03-13T08:53:19.772Z,0.50
2023-03-13T08:58:21.509Z,0.40
2023-03-13T09:03:23.171Z,0.50
2023-03-13T09:08:25.441Z,0.47
2023-03-13T09:13:28.994Z,0.50
2023-03-13T09:18:31.172Z,0.60
2023-03-13T09:23:32.978Z,0.50
2023-03-13T09:28:39.485Z,0.90
2023-03-13T09:33:42.659Z,0.70
2023-03-13T09:38:44.651Z,0.80
2023-03-13T09:44:09.870Z,0.75
2023-03-13T09:49:34.950Z,0.80
2023-03-13T09:54:42.047Z,1.15
2023-03-13T09:59:57.392Z,1.10
2023-03-13T10:05:22.327Z,0.80
2023-03-13T10:10:39.137Z,0.85
2023-03-13T10:15:56.960Z,1.55
2023-03-13T10:21:01.758Z,0.88
2023-03-13T10:26:03.374Z,0.90
2023-03-13T10:31:23.838Z,1.00
2023-03-13T10:36:25.461Z,0.82
2023-03-13T10:41:31.145Z,0.80
2023-03-13T10:46:36.089Z,1.00
2023-03-13T10:51:48.939Z,0.85
2023-03-13T10:56:51.904Z,0.77
2023-03-13T11:02:01.505Z,0.95
2023-03-13T11:07:28.745Z,0.70
2023-03-13T11:12:34.793Z,0.85
2023-03-13T11:17:39.919Z,0.80
2023-03-13T11:22:53.550Z,0.80
2023-03-13T11:28:15.350Z,0.85
2023-03-13T11:33:28.242Z,1.17
2023-03-13T11:38:39.993Z,0.93
2023-03-13T11:44:07.103Z,0.57
2023-03-13T11:49:29.341Z,0.95
2023-03-13T11:54:59.657Z,0.75
2023-03-13T12:00:31.200Z,0.70
2023-03-13T12:05:46.164Z,0.80
2023-03-13T12:11:00.405Z,1.23
2023-03-13T12:16:10.202Z,0.65
2023-03-13T12:21:23.346Z,0.60
2023-03-13T12:27:15.479Z,0.75
2023-03-13T12:32:28.867Z,0.70
2023-03-13T12:37:47.596Z,0.70
2023-03-13T12:43:00.653Z,1.03
2023-03-13T12:48:14.238Z,0.80
2023-03-13T12:53:42.129Z,0.60
2023-03-13T12:58:51.880Z,0.65
2023-03-13T13:04:00.881Z,0.55
2023-03-13T13:09:27.020Z,0.60
2023-03-13T13:14:28.505Z,0.70
2023-03-13T13:19:42.202Z,0.80
2023-03-13T13:24:52.134Z,0.57
2023-03-13T13:29:58.597Z,0.65
2023-03-13T13:35:03.372Z,0.50
2023-03-13T13:40:24.358Z,0.68
2023-03-13T13:45:35.192Z,0.57
2023-03-13T13:50:36.844Z,0.73
2023-03-13T13:55:43.822Z,0.38
2023-03-13T14:01:03.696Z,0.57
2023-03-13T14:06:30.871Z,0.57
2023-03-13T14:11:39.436Z,0.40
2023-03-13T14:16:46.302Z,0.50
2023-03-13T14:21:47.937Z,0.50
2023-03-13T14:26:49.491Z,0.30
2023-03-13T14:31:56.910Z,0.35
2023-03-13T14:37:16.777Z,0.60
2023-03-13T14:42:19.367Z,0.70
2023-03-13T14:47:32.178Z,0.50
2023-03-13T14:52:34.232Z,0.70
2023-03-13T14:57:36.122Z,0.50
2023-03-13T15:02:38.767Z,0.55
2023-03-13T15:07:47.384Z,0.50
2023-03-13T15:12:49.602Z,0.70
2023-03-13T15:17:51.126Z,0.82
2023-03-13T15:22:52.634Z,0.50
2023-03-13T15:27:54.151Z,0.65
2023-03-13T15:32:55.718Z,1.00
2023-03-13T15:37:59.474Z,0.90
2023-03-13T15:43:01.045Z,0.50
2023-03-13T15:48:02.863Z,0.60
2023-03-13T15:53:16.492Z,0.70
2023-03-13T15:58:18.546Z,0.60
2023-03-13T16:03:24.680Z,0.80
2023-03-13T16:08:36.395Z,0.60
2023-03-13T16:13:38.627Z,0.60
2023-03-13T16:18:40.140Z,0.68
2023-03-13T16:23:41.633Z,0.40
2023-03-13T16:28:43.613Z,0.40
2023-03-13T16:33:45.578Z,0.55
2023-03-13T16:38:48.046Z,1.02
2023-03-13T16:43:50.304Z,0.60
2023-03-13T16:48:51.863Z,0.60
2023-03-13T16:53:55.652Z,0.90
2023-03-13T16:58:58.394Z,0.90
2023-03-13T17:04:00.372Z,0.77
2023-03-13T17:09:02.703Z,0.80
2023-03-13T17:14:04.526Z,0.77
2023-03-13T17:19:08.880Z,1.00
2023-03-13T17:24:10.375Z,0.90
2023-03-13T17:29:18.725Z,0.73
2023-03-13T17:34:20.271Z,1.00
2023-03-13T17:39:24.378Z,0.70
2023-03-13T17:44:25.952Z,1.35
2023-03-13T17:49:29.505Z,1.38
2023-03-13T17:54:31.027Z,0.80
2023-03-13T17:59:32.553Z,1.50
2023-03-13T18:04:34.069Z,1.90
2023-03-13T18:09:35.547Z,1.50
2023-03-13T18:14:37.750Z,0.98
2023-03-13T18:19:39.247Z,1.35
2023-03-13T18:24:41.208Z,1.20
2023-03-13T18:29:43.637Z,1.38
2023-03-13T18:34:45.582Z,1.30
2023-03-13T18:39:49.891Z,1.50
2023-03-13T18:44:51.449Z,1.27
2023-03-13T18:49:52.968Z,2.00
2023-03-13T18:54:54.495Z,1.98
2023-03-13T18:59:56.000Z,1.90
2023-03-13T19:04:57.500Z,1.40
2023-03-13T19:09:59.068Z,2.05
2023-03-13T19:15:00.555Z,3.40
2023-03-13T19:20:02.123Z,3.33
2023-03-13T19:25:03.889Z,2.90
2023-03-13T19:30:14.736Z,1.33
2023-03-13T19:35:21.722Z,0.90
2023-03-13T19:40:25.950Z,0.60
2023-03-13T19:45:27.715Z,0.50
2023-03-13T19:50:31.028Z,0.90
2023-03-13T19:55:32.541Z,0.75
2023-03-13T20:00:37.419Z,0.70
2023-03-13T20:05:38.918Z,0.52
2023-03-13T20:10:40.419Z,0.75
2023-03-13T20:15:42.019Z,0.90
2023-03-13T20:20:43.655Z,0.60
2023-03-13T20:25:45.192Z,0.90
2023-03-13T20:30:48.485Z,0.63
2023-03-13T20:35:50.041Z,0.60
2023-03-13T20:40:53.586Z,0.57
2023-03-13T20:45:55.401Z,0.30
2023-03-13T20:51:00.059Z,0.70
2023-03-13T20:56:03.617Z,0.43
2023-03-13T21:01:07.295Z,0.55
2023-03-13T21:06:14.971Z,0.50
2023-03-13T21:11:19.288Z,0.40
2023-03-13T21:16:20.997Z,0.63
2023-03-13T21:21:22.604Z,0.40
2023-03-13T21:26:24.171Z,0.40
2023-03-13T21:31:28.136Z,0.40
2023-03-13T21:36:32.863Z,0.40
2023-03-13T21:41:35.208Z,0.30
2023-03-13T21:46:36.755Z,0.50
2023-03-13T21:51:38.281Z,0.45
2023-03-13T21:56:39.771Z,0.30
2023-03-13T22:01:42.351Z,0.32
2023-03-13T22:06:43.903Z,0.22
2023-03-13T22:11:45.516Z,0.10
2023-03-13T22:16:48.117Z,0.30
2023-03-13T22:21:49.686Z,0.20
2023-03-13T22:26:51.297Z,0.25
2023-03-13T22:31:52.827Z,0.40
2023-03-13T22:36:54.432Z,0.40
2023-03-13T22:41:56.004Z,0.40
2023-03-13T22:46:57.539Z,0.50
2023-03-13T22:51:59.367Z,0.20
2023-03-13T22:57:00.856Z,0.30
2023-03-13T23:02:02.365Z,0.30
2023-03-13T23:07:03.937Z,0.30
2023-03-13T23:12:05.712Z,0.30
2023-03-13T23:17:07.253Z,0.40
2023-03-13T23:22:08.892Z,0.32
2023-03-13T23:27:10.407Z,0.40
2023-03-13T23:32:11.994Z,0.40
2023-03-13T23:37:13.486Z,0.45
2023-03-13T23:42:15.023Z,0.40
2023-03-13T23:47:16.548Z,0.40
2023-03-13T23:52:18.124Z,0.35
2023-03-13T23:57:19.851Z,0.60
